Nearby METAR Reports

 

KSJC - San Jose, California, USA
Distance from station: NE 9mi, 14km
Updated: Sat, 16-Dec-2017 2:53pm EST
Few Clouds
Few Clouds
 Wind from W
Wind: W 20 mph , 31 km/h
Temperature: 63°F , 17°C
Dew Point: 28°F , -2°C
Humidity: 27%
Barometer: 29.93 inHg , 1013.5 hPa
Clouds: Few Clouds
Visibility: 10 miles , 16 km
Cloud details: Few Clouds 7000 ft
2017/12/16 19:53 KSJC 161953Z 27017KT 10SM FEW070 17/M02 A2993 RMK AO2 SLP133 T01721022
KNUQ - Moffett Nas/Mtn, California, USA
Distance from station: N 9mi, 14km
Updated: Sat, 16-Dec-2017 2:56pm EST
Light rain, Clear
Light rain, Clear
 Wind from NNW
Wind: NNW 21 mph , 33 km/h, Gust: 33 mph , 54 km/h
Temperature: 63°F , 17°C
Dew Point: 28°F , -2°C
Humidity: 27%
Barometer: 29.93 inHg , 1013.5 hPa
Summary: Light rain
Clouds: Clear
Visibility: 10 miles , 16 km
2017/12/16 19:56 KNUQ 161956Z 33018G29KT 10SM -RA CLR 17/M02 A2993 RMK AO2 PK WND 31029/1954 RAB34 SLP137 P0000 T01671022
 
KPAO - Palo Alto, California, USA
Distance from station: NNW 14mi, 23km
Updated: Sat, 16-Dec-2017 2:47pm EST
Clear
Clear
 Wind from NW
Wind: NW 25 mph , 41 km/h, Gust: 32 mph , 52 km/h
Temperature: 63°F , 17°C
Dew Point: 32°F , 0°C
Humidity: 32%
Barometer: 29.93 inHg , 1013.5 hPa
Clouds: Clear
Visibility: 10 miles , 16 km
2017/12/16 19:47 KPAO 161947Z 31022G28KT 10SM SKC 17/00 A2993 +/- 1O KT
KRHV - San Jose/Reid, California, USA
Distance from station: ENE 12mi, 19km
Updated: Sat, 16-Dec-2017 2:58pm EST
Few Clouds
Few Clouds
 Wind from N
Wind: N 14 mph , 22 km/h
Temperature: 61°F , 16°C
Dew Point: 18°F , -8°C
Humidity: 19%
Barometer: 29.89 inHg , 1012.2 hPa
Clouds: Few Clouds
Visibility: 10 miles , 16 km
Cloud details: Few Clouds 8000 ft
2017/12/16 19:58 KRHV 161958Z 36012KT 10SM FEW080 16/M08 A2989
 
KOAK - Oakland, California, USA
Distance from station: NNW 31mi, 50km
Updated: Sat, 16-Dec-2017 2:53pm EST
Partly cloudy
Partly cloudy
 Wind from NNW
Wind: NNW 18 mph , 30 km/h, Gust: 33 mph , 54 km/h
Temperature: 63°F , 17°C
Dew Point: 19°F , -7°C
Humidity: 19%
Barometer: 29.96 inHg , 1014.6 hPa
Clouds: Partly cloudy
Visibility: 10 miles , 16 km
Cloud details: Partly cloudy 20000 ft
2017/12/16 19:53 KOAK 161953Z 34016G29KT 10SM SCT200 17/M07 A2996 RMK AO2 PK WND 33034/1906 SLP146 T01721072 $
KSQL - San Carlos Airpo, California, USA
Distance from station: NW 21mi, 34km
Updated: Sat, 16-Dec-2017 2:47pm EST
Partly cloudy
Partly cloudy
 Wind from NW
Wind: NW 18 mph , 30 km/h, Gust: 28 mph , 44 km/h
Temperature: 63°F , 17°C
Dew Point: 25°F , -4°C
Humidity: 24%
Barometer: 29.95 inHg , 1014.2 hPa
Clouds: Partly cloudy
Visibility: 10 miles , 16 km
Cloud details: Partly cloudy 20000 ft
2017/12/16 19:47 KSQL 161947Z 32016G24KT 10SM SCT200 17/M04 A2995
 
KSFO - San Francisco, California, USA
Distance from station: NW 30mi, 49km
Updated: Sat, 16-Dec-2017 2:56pm EST
Partly cloudy
Partly cloudy
 Wind from NW
Wind: NW 17 mph , 28 km/h, Gust: 25 mph , 41 km/h
Temperature: 63°F , 17°C
Dew Point: 28°F , -2°C
Humidity: 27%
Barometer: 29.96 inHg , 1014.6 hPa
Clouds: Partly cloudy
Visibility: 10 miles , 16 km
Cloud details: Partly cloudy 20000 ft
2017/12/16 19:56 KSFO 161956Z 31015G22KT 10SM SCT200 17/M02 A2996 RMK AO2 PK WND 33033/1921 SLP146 T01721017
KE16 - San Martin, California, USA
Distance from station: ESE 27mi, 43km
Updated: Sat, 16-Dec-2017 3:10pm EST
Clear
Clear
 Wind from NW
Wind: NW 21 mph , 33 km/h, Gust: 32 mph , 52 km/h
Temperature: 63°F , 17°C
Dew Point: 23°F , -5°C
Humidity: 22%
Barometer: 29.86 inHg , 1011.2 hPa
Clouds: Clear
Visibility: 10 miles , 16 km
2017/12/16 20:10 KE16 162010Z AUTO 32018G28KT 10SM CLR 17/M05 A2986 RMK AO2 PWINO PNO
 
KWVI - Watsonville, California, USA
Distance from station: SSE 27mi, 44km
Updated: Sat, 16-Dec-2017 2:53pm EST
Clear
Clear
 Wind from varies
Wind: varies 5 mph , 7 km/h
Temperature: 63°F , 17°C
Dew Point: 25°F , -4°C
Humidity: 24%
Barometer: 29.90 inHg , 1012.5 hPa
Clouds: Clear
Visibility: 10 miles , 16 km
2017/12/16 19:53 KWVI 161953Z AUTO VRB04KT 10SM CLR 17/M04 A2990 RMK AO2 SLP126 T01721039 $
KHAF - Half Moon Bay, California, USA
Distance from station: WNW 31mi, 50km
Updated: Sat, 16-Dec-2017 3:35pm EST
Clear
Clear
 Wind from NNW
Wind: NNW 23 mph , 37 km/h, Gust: 33 mph , 54 km/h
Temperature: 57°F , 14°C
Dew Point: 41°F , 5°C
Humidity: 55%
Barometer: 29.92 inHg , 1013.2 hPa
Clouds: Clear
Visibility: 7 miles , 11 km
2017/12/16 20:35 KHAF 162035Z AUTO 34020G29KT 7SM CLR 14/05 A2992 RMK AO2
 
KHWD - Hayward, California, USA
Distance from station: N 28mi, 44km
Updated: Sat, 16-Dec-2017 2:54pm EST
Clear
Clear
 Wind from NNW
Wind: NNW 23 mph , 37 km/h
Temperature: 64°F , 18°C
Dew Point: 16°F , -9°C
Humidity: 15%
Barometer: 29.94 inHg , 1013.9 hPa
Clouds: Clear
Visibility: 10 miles , 16 km
2017/12/16 19:54 KHWD 161954Z 33020KT 10SM CLR 18/M09 A2994 RMK AO2 SLP150 T01831089
KLVK - Livermore, California, USA
Distance from station: NNE 31mi, 51km
Updated: Sat, 16-Dec-2017 2:53pm EST
Clear
Clear
 Wind from N
Wind: N 14 mph , 22 km/h, Gust: 23 mph , 37 km/h
Temperature: 63°F , 17°C
Dew Point: 18°F , -8°C
Humidity: 17%
Barometer: 29.93 inHg , 1013.5 hPa
Clouds: Clear
Visibility: 10 miles , 16 km
2017/12/16 19:53 KLVK 161953Z 35012G20KT 10SM CLR 17/M08 A2993 RMK AO2 PK WND 35026/1859 SLP133 T01671078